createdAt,value
2023-04-14T00:01:35.297Z,67920.41
2023-04-14T00:04:04.566Z,67924.38
2023-04-14T00:06:32.969Z,67926.06
2023-04-14T00:09:00.322Z,67931.53
2023-04-14T00:11:33.227Z,67936.25
2023-04-14T00:14:03.068Z,67937.38
2023-04-14T00:16:30.648Z,67936.44
2023-04-14T00:19:00.982Z,67941.34
2023-04-14T00:21:28.222Z,67931.53
2023-04-14T00:23:56.740Z,67921.94
2023-04-14T00:26:24.375Z,67913.25
2023-04-14T00:28:52.573Z,67920.22
2023-04-14T00:31:19.935Z,67925.69
2023-04-14T00:33:47.266Z,67930.03
2023-04-14T00:36:14.147Z,67926.63
2023-04-14T00:38:41.574Z,67914.59
2023-04-14T00:41:08.674Z,67914.22
2023-04-14T00:43:35.838Z,67916.66
2023-04-14T00:46:02.796Z,67920.41
2023-04-14T00:48:30.931Z,67902.53
2023-04-14T00:50:57.965Z,67896.66
2023-04-14T00:53:25.017Z,67892.38
2023-04-14T00:55:52.033Z,67891.59
2023-04-14T00:58:19.147Z,67894.78
2023-04-14T01:00:52.390Z,67883.09
2023-04-14T01:03:19.531Z,67888.19
2023-04-14T01:05:46.633Z,67889.34
2023-04-14T01:08:13.709Z,67896.88
2023-04-14T01:10:59.504Z,67914.22
2023-04-14T01:13:41.763Z,67920.22
2023-04-14T01:16:17.999Z,67923.44
2023-04-14T01:19:01.340Z,67924.38
2023-04-14T01:21:33.163Z,67922.84
2023-04-14T01:24:18.875Z,67919.50
2023-04-14T01:26:46.173Z,67916.84
2023-04-14T01:29:22.407Z,67913.84
2023-04-14T01:31:50.002Z,67901.56
2023-04-14T01:34:19.939Z,67876.53
2023-04-14T01:36:54.157Z,67871.47
2023-04-14T01:39:23.476Z,67886.88
2023-04-14T01:41:54.782Z,67899.69
2023-04-14T01:44:22.502Z,67902.31
2023-04-14T01:46:51.828Z,67903.09
2023-04-14T01:49:21.138Z,67901.75
2023-04-14T01:51:48.855Z,67893.84
2023-04-14T01:54:24.163Z,67885.00
2023-04-14T01:56:54.698Z,67869.94
2023-04-14T01:59:23.223Z,67875.00
2023-04-14T02:01:51.189Z,67873.16
2023-04-14T02:04:23.090Z,67865.59
2023-04-14T02:06:51.503Z,67847.69
2023-04-14T02:09:21.033Z,67839.59
2023-04-14T02:11:50.545Z,67835.84
2023-04-14T02:14:18.621Z,67847.13
2023-04-14T02:16:47.092Z,67856.19
2023-04-14T02:19:18.830Z,67851.31
2023-04-14T02:21:46.852Z,67831.13
2023-04-14T02:24:13.847Z,67802.72
2023-04-14T02:26:45.289Z,67797.44
2023-04-14T02:29:16.273Z,67799.72
2023-04-14T02:31:45.731Z,67825.69
2023-04-14T02:34:18.384Z,67833.94
2023-04-14T02:36:50.701Z,67835.47
2023-04-14T02:39:21.503Z,67842.06
2023-04-14T02:41:53.438Z,67839.59
2023-04-14T02:44:25.671Z,67838.47
2023-04-14T02:47:04.002Z,67838.09
2023-04-14T02:49:35.312Z,67835.09
2023-04-14T02:52:08.743Z,67839.03
2023-04-14T02:54:36.583Z,67816.63
2023-04-14T02:57:05.983Z,67816.63
2023-04-14T02:59:38.854Z,67819.66
2023-04-14T03:02:10.662Z,67826.03
2023-04-14T03:04:44.351Z,67816.84
2023-04-14T03:07:22.963Z,67804.22
2023-04-14T03:09:50.536Z,67801.75
2023-04-14T03:12:19.445Z,67796.09
2023-04-14T03:14:47.684Z,67791.59
2023-04-14T03:17:14.965Z,67786.50
2023-04-14T03:19:44.206Z,67787.09
2023-04-14T03:22:13.631Z,67776.72
2023-04-14T03:24:41.950Z,67772.97
2023-04-14T03:27:10.831Z,67765.06
2023-04-14T03:29:40.749Z,67767.91
2023-04-14T03:32:09.086Z,67765.81
2023-04-14T03:34:40.842Z,67763.22
2023-04-14T03:37:08.136Z,67763.22
2023-04-14T03:39:38.733Z,67764.69
2023-04-14T03:42:10.934Z,67782.75
2023-04-14T03:44:39.887Z,67777.69
2023-04-14T03:47:08.273Z,67772.41
2023-04-14T03:49:38.239Z,67760.56
2023-04-14T03:52:07.770Z,67766.00
2023-04-14T03:54:36.151Z,67756.41
2023-04-14T03:57:06.245Z,67747.38
2023-04-14T03:59:35.275Z,67736.28
2023-04-14T04:02:03.110Z,67730.44
2023-04-14T04:04:31.184Z,67699.81
2023-04-14T04:06:59.136Z,67691.16
2023-04-14T04:09:27.410Z,67679.84
2023-04-14T04:11:57.987Z,67677.59
2023-04-14T04:14:26.004Z,67676.09
2023-04-14T04:16:54.965Z,67679.31
2023-04-14T04:19:23.832Z,67680.63
2023-04-14T04:21:52.640Z,67686.84
2023-04-14T04:24:22.185Z,67685.50
2023-04-14T04:26:49.702Z,67686.06
2023-04-14T04:29:16.651Z,67681.19
2023-04-14T04:31:43.722Z,67681.56
2023-04-14T04:34:10.971Z,67676.09
2023-04-14T04:36:41.167Z,67684.94
2023-04-14T04:39:08.349Z,67695.66
2023-04-14T04:41:40.237Z,67686.06
2023-04-14T04:44:07.177Z,67694.72
2023-04-14T04:46:56.460Z,67715.19
2023-04-14T04:49:26.780Z,67715.41
2023-04-14T04:51:56.839Z,67721.03
2023-04-14T04:54:23.902Z,67723.69
2023-04-14T04:56:51.431Z,67729.16
2023-04-14T04:59:18.420Z,67687.22
2023-04-14T05:01:45.971Z,67723.69
2023-04-14T05:04:12.975Z,67723.88
2023-04-14T05:06:40.113Z,67730.06
2023-04-14T05:09:07.155Z,67724.06
2023-04-14T05:11:34.200Z,67728.00
2023-04-14T05:14:01.614Z,67741.16
2023-04-14T05:16:28.828Z,67740.81
2023-04-14T05:18:56.972Z,67742.69
2023-04-14T05:21:24.071Z,67738.94
2023-04-14T05:23:54.078Z,67750.03
2023-04-14T05:28:55.167Z,67760.34
2023-04-14T05:31:22.628Z,67782.56
2023-04-14T05:33:49.635Z,67785.94
2023-04-14T05:36:22.762Z,67768.47
2023-04-14T05:38:49.641Z,67766.75
2023-04-14T05:41:17.532Z,67763.03
2023-04-14T05:43:44.440Z,67754.91
2023-04-14T05:46:11.374Z,67753.97
2023-04-14T05:48:38.518Z,67765.06
2023-04-14T05:51:05.538Z,67756.44
2023-04-14T05:53:32.403Z,67764.88
2023-04-14T05:56:01.474Z,67760.00
2023-04-14T05:58:28.379Z,67758.69
2023-04-14T06:00:55.278Z,67757.94
2023-04-14T06:03:22.314Z,67753.81
2023-04-14T06:05:50.685Z,67755.88
2023-04-14T06:08:19.119Z,67755.50
2023-04-14T06:10:46.131Z,67763.38
2023-04-14T06:13:12.985Z,67768.28
2023-04-14T06:15:45.826Z,67775.78
2023-04-14T06:18:12.739Z,67782.97
2023-04-14T06:20:45.012Z,67795.00
2023-04-14T06:23:11.971Z,67792.00
2023-04-14T06:25:44.253Z,67796.69
2023-04-14T06:28:17.062Z,67807.97
2023-04-14T06:30:44.021Z,67811.56
2023-04-14T06:33:15.013Z,67819.47
2023-04-14T06:35:43.485Z,67820.78
2023-04-14T06:38:12.097Z,67810.63
2023-04-14T06:40:39.053Z,67822.66
2023-04-14T06:43:12.170Z,67826.59
2023-04-14T06:45:39.182Z,67824.53
2023-04-14T06:48:06.461Z,67828.69
2023-04-14T06:50:35.172Z,67836.75
2023-04-14T06:53:06.697Z,67837.16
2023-04-14T06:55:35.365Z,67859.59
2023-04-14T06:58:04.699Z,67875.03
2023-04-14T07:00:32.666Z,67884.47
2023-04-14T07:02:59.822Z,67891.78
2023-04-14T07:05:30.123Z,67892.91
2023-04-14T07:07:57.349Z,67857.84
2023-04-14T07:10:24.429Z,67911.00
2023-04-14T07:12:51.415Z,67921.94
2023-04-14T07:15:18.607Z,67916.47
2023-04-14T07:17:45.877Z,67914.41
2023-04-14T07:20:13.573Z,67921.38
2023-04-14T07:22:40.775Z,67917.22
2023-04-14T07:25:07.954Z,67904.78
2023-04-14T07:27:36.479Z,67909.13
2023-04-14T07:30:03.849Z,67891.22
2023-04-14T07:32:31.485Z,67889.75
2023-04-14T07:34:59.317Z,67891.41
2023-04-14T07:37:26.687Z,67885.94
2023-04-14T07:39:53.754Z,67872.00
2023-04-14T07:42:20.813Z,67861.84
2023-04-14T07:44:47.773Z,67851.50
2023-04-14T07:47:14.677Z,67852.81
2023-04-14T07:49:41.605Z,67853.75
2023-04-14T07:52:11.950Z,67846.56
2023-04-14T07:54:38.918Z,67839.22
2023-04-14T07:57:08.577Z,67844.31
2023-04-14T07:59:36.441Z,67846.38
2023-04-14T08:02:05.456Z,67842.63
2023-04-14T08:04:32.852Z,67833.22
2023-04-14T08:07:02.695Z,67837.16
2023-04-14T08:09:29.639Z,67841.13
2023-04-14T08:11:57.402Z,67827.00
2023-04-14T08:14:33.117Z,67828.88
2023-04-14T08:17:00.028Z,67834.50
2023-04-14T08:19:26.947Z,67834.13
2023-04-14T08:21:54.292Z,67835.28
2023-04-14T08:24:22.601Z,67833.59
2023-04-14T08:26:50.169Z,67836.75
2023-04-14T08:29:17.076Z,67838.47
2023-04-14T08:31:44.076Z,67829.84
2023-04-14T08:34:11.057Z,67828.31
2023-04-14T08:36:45.965Z,67826.03
2023-04-14T08:39:13.622Z,67822.28
2023-04-14T08:41:40.917Z,67826.81
2023-04-14T08:44:13.676Z,67822.88
2023-04-14T08:46:44.523Z,67822.09
2023-04-14T08:49:14.980Z,67822.28
2023-04-14T08:51:45.439Z,67835.09
2023-04-14T08:54:12.881Z,67820.25
2023-04-14T08:56:44.350Z,67825.50
2023-04-14T08:59:11.787Z,67826.41
2023-04-14T09:01:39.656Z,67819.09
2023-04-14T09:04:07.840Z,67816.28
2023-04-14T09:06:35.506Z,67822.88
2023-04-14T09:09:13.073Z,67825.69
2023-04-14T09:11:40.504Z,67816.63
2023-04-14T09:14:35.969Z,67820.97
2023-04-14T09:17:01.218Z,67828.50
2023-04-14T09:19:36.324Z,67841.31
2023-04-14T09:22:23.285Z,67832.81
2023-04-14T09:24:52.055Z,67838.47
2023-04-14T09:27:19.304Z,67843.56
2023-04-14T09:29:46.675Z,67842.06
2023-04-14T09:32:16.430Z,67837.91
2023-04-14T09:34:58.451Z,67839.03
2023-04-14T09:37:26.158Z,67833.19
2023-04-14T09:39:55.365Z,67824.19
2023-04-14T09:42:37.375Z,67824.34
2023-04-14T09:45:05.278Z,67817.56
2023-04-14T09:47:35.608Z,67815.16
2023-04-14T09:50:05.753Z,67808.38
2023-04-14T09:52:40.829Z,67823.06
2023-04-14T09:55:17.181Z,67835.09
2023-04-14T09:57:47.481Z,67829.84
2023-04-14T10:00:18.767Z,67829.63
2023-04-14T10:03:06.408Z,67822.09
2023-04-14T10:05:34.730Z,67811.94
2023-04-14T10:08:07.384Z,67805.16
2023-04-14T10:10:34.339Z,67801.19
2023-04-14T10:13:02.174Z,67810.63
2023-04-14T10:15:41.856Z,67813.25
2023-04-14T10:18:10.127Z,67819.84
2023-04-14T10:20:43.034Z,67813.63
2023-04-14T10:23:10.054Z,67818.16
2023-04-14T10:25:47.585Z,67824.53
2023-04-14T10:28:15.277Z,67825.50
2023-04-14T10:30:43.307Z,67830.78
2023-04-14T10:33:10.281Z,67835.28
2023-04-14T10:35:39.655Z,67820.25
2023-04-14T10:38:30.064Z,67838.47
2023-04-14T10:40:58.687Z,67831.50
2023-04-14T10:43:29.175Z,67833.41
2023-04-14T10:45:59.225Z,67831.69
2023-04-14T10:48:48.639Z,67814.59
2023-04-14T10:54:15.427Z,67834.13
2023-04-14T10:56:44.437Z,67825.69
2023-04-14T10:59:16.125Z,67827.16
2023-04-14T11:01:54.209Z,67834.13
2023-04-14T11:04:26.124Z,67828.69
2023-04-14T11:06:58.193Z,67828.16
2023-04-14T11:09:32.173Z,67823.59
2023-04-14T11:12:04.914Z,67820.41
2023-04-14T11:14:39.794Z,67835.28
2023-04-14T11:17:23.767Z,67829.06
2023-04-14T11:20:06.432Z,67816.28
2023-04-14T11:22:41.639Z,67823.41
2023-04-14T11:25:11.737Z,67833.59
2023-04-14T11:27:39.624Z,67837.75
2023-04-14T11:30:09.359Z,67855.44
2023-04-14T11:32:53.715Z,67853.94
2023-04-14T11:35:24.897Z,67839.44
2023-04-14T11:38:01.359Z,67836.97
2023-04-14T11:40:31.339Z,67829.84
2023-04-14T11:42:59.268Z,67838.09
2023-04-14T11:45:30.942Z,67825.69
2023-04-14T11:47:59.922Z,67832.25
2023-04-14T11:50:32.924Z,67831.31
2023-04-14T11:53:02.693Z,67823.97
2023-04-14T11:55:30.270Z,67828.69
2023-04-14T11:57:59.340Z,67826.97
2023-04-14T12:00:29.451Z,67819.09
2023-04-14T12:02:57.005Z,67821.72
2023-04-14T12:05:31.715Z,67829.06
2023-04-14T12:08:01.333Z,67829.84
2023-04-14T12:10:29.227Z,67830.59
2023-04-14T12:13:03.350Z,67846.19
2023-04-14T12:15:36.951Z,67836.06
2023-04-14T12:18:07.310Z,67845.25
2023-04-14T12:20:47.330Z,67825.88
2023-04-14T12:23:15.812Z,67831.50
2023-04-14T12:25:43.408Z,67828.31
2023-04-14T12:28:10.979Z,67825.88
2023-04-14T12:30:50.063Z,67830.56
2023-04-14T12:33:25.334Z,67836.03
2023-04-14T12:35:53.752Z,67838.88
2023-04-14T12:38:26.790Z,67848.06
2023-04-14T12:40:54.617Z,67853.94
2023-04-14T12:43:32.397Z,67849.75
2023-04-14T12:45:59.893Z,67832.09
2023-04-14T12:48:48.959Z,67838.31
2023-04-14T12:51:18.214Z,67839.78
2023-04-14T12:53:48.044Z,67843.00
2023-04-14T12:56:20.042Z,67840.94
2023-04-14T12:58:48.541Z,67847.50
2023-04-14T13:01:21.165Z,67838.09
2023-04-14T13:03:52.869Z,67852.63
2023-04-14T13:06:23.071Z,67850.31
2023-04-14T13:08:52.449Z,67834.72
2023-04-14T13:11:21.172Z,67837.16
2023-04-14T13:13:49.115Z,67841.13
2023-04-14T13:16:20.672Z,67842.63
2023-04-14T13:18:49.245Z,67852.44
2023-04-14T13:21:16.807Z,67861.28
2023-04-14T13:23:44.501Z,67872.38
2023-04-14T13:26:15.814Z,67870.69
2023-04-14T13:28:49.824Z,67879.16
2023-04-14T13:31:22.761Z,67870.31
2023-04-14T13:33:49.849Z,67864.66
2023-04-14T13:36:16.945Z,67859.59
2023-04-14T13:38:47.326Z,67872.00
2023-04-14T13:41:15.616Z,67879.72
2023-04-14T13:43:44.971Z,67884.25
2023-04-14T13:46:12.272Z,67883.69
2023-04-14T13:48:39.585Z,67879.16
2023-04-14T13:51:06.704Z,67879.38
2023-04-14T13:53:33.819Z,67870.31
2023-04-14T13:56:01.104Z,67865.59
2023-04-14T13:58:51.893Z,67860.91
2023-04-14T14:01:19.476Z,67858.81
2023-04-14T14:03:47.717Z,67864.09
2023-04-14T14:06:21.706Z,67863.34
2023-04-14T14:09:02.622Z,67864.09
2023-04-14T14:11:32.290Z,67856.75
2023-04-14T14:14:00.555Z,67857.53
2023-04-14T14:16:36.820Z,67864.66
2023-04-14T14:19:10.391Z,67866.38
2023-04-14T14:21:37.530Z,67874.09
2023-04-14T14:24:07.879Z,67882.56
2023-04-14T14:26:38.911Z,67874.28
2023-04-14T14:29:05.995Z,67875.03
2023-04-14T14:31:35.807Z,67877.66
2023-04-14T14:34:04.395Z,67870.88
2023-04-14T14:36:38.873Z,67870.31
2023-04-14T14:39:06.904Z,67882.19
2023-04-14T14:41:41.466Z,67888.78
2023-04-14T14:44:09.919Z,67901.22
2023-04-14T14:46:42.243Z,67904.78
2023-04-14T14:49:10.544Z,67911.75
2023-04-14T14:51:40.759Z,67903.09
2023-04-14T14:54:10.740Z,67898.75
2023-04-14T14:56:39.083Z,67912.69
2023-04-14T14:59:06.655Z,67899.13
2023-04-14T15:01:33.868Z,67897.25
2023-04-14T15:04:08.214Z,67888.59
2023-04-14T15:06:38.816Z,67891.03
2023-04-14T15:09:07.141Z,67904.78
2023-04-14T15:11:40.308Z,67917.59
2023-04-14T15:14:22.092Z,67906.66
2023-04-14T15:16:49.728Z,67917.03
2023-04-14T15:19:17.196Z,67907.63
2023-04-14T15:21:47.080Z,67900.28
2023-04-14T15:24:18.492Z,67910.06
2023-04-14T15:26:46.585Z,67902.53
2023-04-14T15:29:13.694Z,67893.09
2023-04-14T15:31:40.775Z,67902.91
2023-04-14T15:34:08.016Z,67906.66
2023-04-14T15:36:35.865Z,67908.38
2023-04-14T15:39:16.343Z,67891.41
2023-04-14T15:41:59.147Z,67890.66
2023-04-14T15:44:26.463Z,67883.31
2023-04-14T15:47:05.417Z,67883.88
2023-04-14T15:49:38.380Z,67886.50
2023-04-14T15:52:06.739Z,67885.19
2023-04-14T15:54:34.080Z,67887.66
2023-04-14T15:57:02.359Z,67894.03
2023-04-14T15:59:32.997Z,67897.81
2023-04-14T16:02:02.355Z,67885.19
2023-04-14T16:04:32.826Z,67888.97
2023-04-14T16:07:00.031Z,67894.25
2023-04-14T16:09:29.112Z,67875.03
2023-04-14T16:12:00.477Z,67879.72
2023-04-14T16:14:31.997Z,67882.91
2023-04-14T16:17:08.347Z,67868.25
2023-04-14T16:19:35.914Z,67866.91
2023-04-14T16:22:07.167Z,67872.00
2023-04-14T16:24:43.074Z,67868.84
2023-04-14T16:27:11.564Z,67872.00
2023-04-14T16:29:41.533Z,67874.09
2023-04-14T16:32:12.284Z,67863.56
2023-04-14T16:34:39.317Z,67872.56
2023-04-14T16:37:13.170Z,67875.41
2023-04-14T16:39:41.292Z,67871.81
2023-04-14T16:42:09.449Z,67862.78
2023-04-14T16:44:38.763Z,67859.38
2023-04-14T16:47:06.577Z,67857.31
2023-04-14T16:49:34.141Z,67843.41
2023-04-14T16:52:02.574Z,67838.09
2023-04-14T16:54:32.352Z,67839.59
2023-04-14T16:57:01.168Z,67841.31
2023-04-14T16:59:30.812Z,67841.84
2023-04-14T17:02:01.168Z,67834.34
2023-04-14T17:04:30.123Z,67833.59
2023-04-14T17:06:57.728Z,67833.03
2023-04-14T17:09:28.799Z,67833.94
2023-04-14T17:11:59.327Z,67832.25
2023-04-14T17:14:26.679Z,67826.81
2023-04-14T17:16:57.179Z,67823.97
2023-04-14T17:19:35.223Z,67819.09
2023-04-14T17:22:03.113Z,67817.22
2023-04-14T17:24:33.027Z,67817.56
2023-04-14T17:27:03.781Z,67808.94
2023-04-14T17:29:37.646Z,67815.13
2023-04-14T17:32:05.603Z,67809.31
2023-04-14T17:34:34.475Z,67802.53
2023-04-14T17:37:02.361Z,67802.91
2023-04-14T17:39:29.874Z,67799.72
2023-04-14T17:42:01.619Z,67796.31
2023-04-14T17:44:34.200Z,67800.66
2023-04-14T17:47:03.469Z,67798.38
2023-04-14T17:49:31.729Z,67792.94
2023-04-14T17:51:59.544Z,67790.69
2023-04-14T17:54:27.262Z,67792.94
2023-04-14T17:56:54.456Z,67795.00
2023-04-14T17:59:21.656Z,67792.16
2023-04-14T18:01:49.107Z,67786.72
2023-04-14T18:04:17.264Z,67785.59
2023-04-14T18:06:44.808Z,67786.16
2023-04-14T18:09:14.185Z,67790.47
2023-04-14T18:11:43.100Z,67784.81
2023-04-14T18:14:12.884Z,67783.34
2023-04-14T18:16:43.699Z,67783.69
2023-04-14T18:19:10.820Z,67783.69
2023-04-14T18:21:40.287Z,67781.63
2023-04-14T18:29:44.692Z,67777.69
2023-04-14T18:32:11.781Z,67776.56
2023-04-14T18:34:38.898Z,67770.56
2023-04-14T18:37:06.547Z,67770.00
2023-04-14T18:39:39.655Z,67767.94
2023-04-14T18:42:18.508Z,67772.03
2023-04-14T18:44:47.065Z,67767.16
2023-04-14T18:47:17.748Z,67770.34
2023-04-14T18:49:45.529Z,67770.72
2023-04-14T18:52:21.195Z,67774.09
2023-04-14T18:54:49.483Z,67772.41
2023-04-14T18:57:18.521Z,67775.03
2023-04-14T18:59:48.201Z,67774.09
2023-04-14T19:02:15.420Z,67773.19
2023-04-14T19:04:44.744Z,67774.09
2023-04-14T19:07:11.881Z,67769.78
2023-04-14T19:09:44.111Z,67769.78
2023-04-14T19:12:21.729Z,67768.09
2023-04-14T19:14:54.558Z,67766.97
2023-04-14T19:17:22.052Z,67766.97
2023-04-14T19:19:49.608Z,67766.75
2023-04-14T19:22:16.849Z,67762.66
2023-04-14T19:24:44.341Z,67759.63
2023-04-14T19:27:12.547Z,67751.56
2023-04-14T19:29:39.774Z,67756.78
2023-04-14T19:32:06.868Z,67755.31
2023-04-14T19:34:34.123Z,67756.78
2023-04-14T19:37:01.302Z,67755.69
2023-04-14T19:39:37.169Z,67756.78
2023-04-14T19:42:04.582Z,67758.31
2023-04-14T19:44:37.001Z,67758.84
2023-04-14T19:47:06.003Z,67757.38
2023-04-14T19:49:33.324Z,67759.41
2023-04-14T19:52:01.560Z,67753.97
2023-04-14T19:54:28.784Z,67751.72
2023-04-14T19:56:55.821Z,67753.78
2023-04-14T19:59:22.873Z,67751.16
2023-04-14T20:01:53.840Z,67748.53
2023-04-14T20:04:23.382Z,67749.44
2023-04-14T20:06:53.295Z,67750.59
2023-04-14T20:09:20.886Z,67758.31
2023-04-14T20:11:48.292Z,67751.53
2023-04-14T20:14:16.236Z,67744.22
2023-04-14T20:16:47.155Z,67748.34
2023-04-14T20:19:14.165Z,67744.03
2023-04-14T20:21:44.588Z,67741.75
2023-04-14T20:24:12.066Z,67741.22
2023-04-14T20:26:42.586Z,67744.75
2023-04-14T20:29:09.694Z,67745.31
2023-04-14T20:31:36.870Z,67741.00
2023-04-14T20:34:04.272Z,67739.88
2023-04-14T20:36:35.729Z,67741.91
2023-04-14T20:39:05.607Z,67742.50
2023-04-14T20:41:36.691Z,67738.75
2023-04-14T20:44:07.358Z,67739.88
2023-04-14T20:46:35.076Z,67736.69
2023-04-14T20:49:03.381Z,67739.88
2023-04-14T20:51:34.538Z,67742.50
2023-04-14T20:54:03.731Z,67742.50
2023-04-14T20:56:31.905Z,67736.69
2023-04-14T20:58:58.980Z,67738.19
2023-04-14T21:01:27.965Z,67741.38
2023-04-14T21:03:58.195Z,67740.22
2023-04-14T21:06:25.679Z,67737.03
2023-04-14T21:08:59.539Z,67733.28
2023-04-14T21:11:30.591Z,67741.72
2023-04-14T21:15:40.867Z,67734.22
2023-04-14T21:16:45.074Z,67738.91
2023-04-14T21:19:15.048Z,67733.66
2023-04-14T21:21:42.208Z,67732.16
2023-04-14T21:24:09.490Z,67738.53
2023-04-14T21:26:36.893Z,67735.91
2023-04-14T21:29:06.492Z,67739.09
2023-04-14T21:31:38.770Z,67734.78
2023-04-14T21:34:07.820Z,67734.78
2023-04-14T21:36:35.632Z,67735.91
2023-04-14T21:39:04.249Z,67735.16
2023-04-14T21:41:32.927Z,67733.28
2023-04-14T21:44:00.053Z,67733.28
2023-04-14T21:46:30.875Z,67732.16
2023-04-14T21:48:57.998Z,67734.22
2023-04-14T21:51:26.294Z,67735.72
2023-04-14T21:53:59.862Z,67732.31
2023-04-14T21:56:30.837Z,67727.66
2023-04-14T21:59:01.137Z,67734.59
2023-04-14T22:01:29.934Z,67729.72
2023-04-14T22:03:57.528Z,67736.28
2023-04-14T22:06:27.034Z,67730.84
2023-04-14T22:08:54.425Z,67728.22
2023-04-14T22:11:23.220Z,67734.03
2023-04-14T22:13:50.483Z,67728.00
2023-04-14T22:16:17.715Z,67732.31
2023-04-14T22:18:45.494Z,67730.28
2023-04-14T22:21:14.775Z,67731.22
2023-04-14T22:23:46.077Z,67728.59
2023-04-14T22:26:14.205Z,67723.34
2023-04-14T22:28:41.600Z,67732.31
2023-04-14T22:31:09.753Z,67724.84
2023-04-14T22:33:37.082Z,67724.63
2023-04-14T22:36:06.247Z,67731.22
2023-04-14T22:38:33.998Z,67730.06
2023-04-14T22:41:01.877Z,67723.69
2023-04-14T22:43:30.031Z,67724.63
2023-04-14T22:45:58.801Z,67725.56
2023-04-14T22:48:28.968Z,67725.00
2023-04-14T22:50:56.622Z,67722.94
2023-04-14T22:53:23.762Z,67722.94
2023-04-14T22:55:50.938Z,67723.88
2023-04-14T22:58:22.455Z,67724.44
2023-04-14T23:00:49.582Z,67720.69
2023-04-14T23:03:19.493Z,67725.94
2023-04-14T23:05:46.745Z,67719.56
2023-04-14T23:08:16.931Z,67721.03
2023-04-14T23:10:44.077Z,67715.78
2023-04-14T23:13:11.170Z,67715.25
2023-04-14T23:15:38.597Z,67714.69
2023-04-14T23:18:05.879Z,67715.25
2023-04-14T23:20:33.460Z,67719.00
2023-04-14T23:23:00.856Z,67723.09
2023-04-14T23:25:28.392Z,67714.69
2023-04-14T23:27:55.550Z,67714.69
2023-04-14T23:30:22.660Z,67715.59
2023-04-14T23:32:52.760Z,67711.84
2023-04-14T23:35:19.821Z,67717.66
2023-04-14T23:37:51.164Z,67716.53
2023-04-14T23:40:18.380Z,67716.91
2023-04-14T23:42:48.576Z,67714.84
2023-04-14T23:45:15.941Z,67711.28
2023-04-14T23:47:43.229Z,67710.16
2023-04-14T23:50:11.739Z,67705.84
2023-04-14T23:52:39.092Z,67711.66
2023-04-14T23:55:11.329Z,67716.91
2023-04-14T23:57:38.700Z,67712.22
